Time,TemperatureF,DewpointF,PressureIn,WindDirection,WindDirectionDegrees,WindSpeedMPH,WindSpeedGustMPH,Humidity,HourlyPrecipIn,Conditions,Clouds,dailyrainin,SoftwareType,DateUTC
2013-02-21 00:02:00,42.0,-99.9,30.03,ESE,116,4.0,6.0,-999,-99.99,,,-99.99,,2013-02-21 08:02:00,
2013-02-21 00:11:00,42.0,-99.9,30.03,ESE,117,4.0,5.0,-999,-99.99,,,-99.99,,2013-02-21 08:11:00,
2013-02-21 00:21:00,42.0,-99.9,30.02,ESE,106,3.0,6.0,-999,-99.99,,,-99.99,,2013-02-21 08:21:00,
2013-02-21 00:32:00,42.0,-99.9,30.02,ESE,105,5.0,7.0,-999,-99.99,,,-99.99,,2013-02-21 08:32:00,
2013-02-21 00:42:00,42.0,-99.9,30.02,SE,136,3.0,4.0,-999,-99.99,,,-99.99,,2013-02-21 08:42:00,
2013-02-21 00:52:00,42.0,-99.9,30.03,SSE,168,3.0,4.0,-999,-99.99,,,-99.99,,2013-02-21 08:52:00,
2013-02-21 01:02:00,42.0,-99.9,30.02,SSE,151,2.0,3.0,-999,-99.99,,,-99.99,,2013-02-21 09:02:00,
2013-02-21 01:11:00,42.0,-99.9,30.03,SE,138,3.0,5.0,-999,-99.99,,,-99.99,,2013-02-21 09:11:00,
2013-02-21 01:22:00,42.0,-99.9,30.03,South,171,4.0,6.0,-999,-99.99,,,-99.99,,2013-02-21 09:22:00,
2013-02-21 01:32:00,42.0,-99.9,30.04,South,175,3.0,4.0,-999,-99.99,,,-99.99,,2013-02-21 09:32:00,
2013-02-21 01:42:00,42.0,-99.9,30.05,SW,215,3.0,4.0,-999,-99.99,,,-99.99,,2013-02-21 09:42:00,
2013-02-21 01:52:00,42.0,-99.9,30.03,SSE,153,3.0,4.0,-999,-99.99,,,-99.99,,2013-02-21 09:52:00,
2013-02-21 02:01:00,42.0,-99.9,30.03,SSE,153,3.0,4.0,-999,-99.99,,,-99.99,,2013-02-21 10:01:00,
2013-02-21 02:11:00,42.0,-99.9,30.03,SSE,153,3.0,4.0,-999,-99.99,,,-99.99,,2013-02-21 10:11:00,
2013-02-21 02:21:00,42.0,-99.9,30.03,SSE,153,3.0,4.0,-999,-99.99,,,-99.99,,2013-02-21 10:21:00,
2013-02-21 03:21:00,41.0,-99.9,30.04,SSE,168,4.0,7.0,-999,-99.99,,,-99.99,,2013-02-21 11:21:00,
2013-02-21 03:31:00,41.0,-99.9,30.04,SE,146,5.0,9.0,-999,-99.99,,,-99.99,,2013-02-21 11:31:00,
2013-02-21 03:41:00,41.0,-99.9,30.05,SSE,161,3.0,6.0,-999,-99.99,,,-99.99,,2013-02-21 11:41:00,
2013-02-21 03:52:00,41.0,-99.9,30.04,SSE,151,4.0,6.0,-999,-99.99,,,-99.99,,2013-02-21 11:52:00,
2013-02-21 04:01:00,42.0,-99.9,30.02,SE,144,8.0,11.0,-999,-99.99,,,-99.99,,2013-02-21 12:01:00,
2013-02-21 04:11:00,42.0,-99.9,30.03,South,183,4.0,11.0,-999,-99.99,,,-99.99,,2013-02-21 12:11:00,
2013-02-21 04:22:00,42.0,-99.9,30.04,SSW,205,9.0,13.0,-999,-99.99,,,-99.99,,2013-02-21 12:22:00,
2013-02-21 04:32:00,42.0,-99.9,30.04,South,187,5.0,10.0,-999,-99.99,,,-99.99,,2013-02-21 12:32:00,
2013-02-21 04:43:00,42.0,-99.9,30.03,SSE,157,6.0,9.0,-999,-99.99,,,-99.99,,2013-02-21 12:43:00,
2013-02-21 04:53:00,42.0,-99.9,30.03,South,171,8.0,12.0,-999,-99.99,,,-99.99,,2013-02-21 12:53:00,
2013-02-21 05:02:00,42.0,-99.9,30.04,SSW,208,14.0,16.0,-999,-99.99,,,-99.99,,2013-02-21 13:02:00,
2013-02-21 05:12:00,42.0,-99.9,30.04,SSW,205,9.0,14.0,-999,-99.99,,,-99.99,,2013-02-21 13:12:00,
2013-02-21 05:22:00,42.0,-99.9,30.04,SSW,207,14.0,17.0,-999,-99.99,,,-99.99,,2013-02-21 13:22:00,
2013-02-21 05:32:00,42.0,-99.9,30.04,SSW,210,10.0,15.0,-999,-99.99,,,-99.99,,2013-02-21 13:32:00,
2013-02-21 05:42:00,42.0,-99.9,30.04,SSW,198,11.0,15.0,-999,-99.99,,,-99.99,,2013-02-21 13:42:00,
2013-02-21 05:52:00,42.0,-99.9,30.04,SSW,207,13.0,17.0,-999,-99.99,,,-99.99,,2013-02-21 13:52:00,
2013-02-21 06:02:00,42.0,-99.9,30.04,SSW,198,8.0,16.0,-999,-99.99,,,-99.99,,2013-02-21 14:02:00,
2013-02-21 06:11:00,42.0,-99.9,30.04,South,189,7.0,13.0,-999,-99.99,,,-99.99,,2013-02-21 14:11:00,
2013-02-21 06:22:00,42.0,-99.9,30.04,SSW,196,6.0,13.0,-999,-99.99,,,-99.99,,2013-02-21 14:22:00,
2013-02-21 06:32:00,42.0,-99.9,30.04,SSW,201,7.0,14.0,-999,-99.99,,,-99.99,,2013-02-21 14:32:00,
2013-02-21 06:42:00,42.0,-99.9,30.04,South,190,7.0,16.0,-999,-99.99,,,-99.99,,2013-02-21 14:42:00,
2013-02-21 06:52:00,43.0,-99.9,30.04,SSW,193,9.0,12.0,-999,-99.99,,,-99.99,,2013-02-21 14:52:00,
2013-02-21 07:02:00,43.0,-99.9,30.04,SSW,192,5.0,13.0,-999,-99.99,,,-99.99,,2013-02-21 15:02:00,
2013-02-21 07:12:00,43.0,-99.9,30.04,SSW,192,6.0,11.0,-999,-99.99,,,-99.99,,2013-02-21 15:12:00,
2013-02-21 07:22:00,43.0,-99.9,30.05,SSW,200,9.0,15.0,-999,-99.99,,,-99.99,,2013-02-21 15:22:00,
2013-02-21 07:32:00,43.0,-99.9,30.05,SSW,211,10.0,17.0,-999,-99.99,,,-99.99,,2013-02-21 15:32:00,
2013-02-21 07:42:00,43.0,-99.9,30.05,South,179,5.0,14.0,-999,-99.99,,,-99.99,,2013-02-21 15:42:00,
2013-02-21 07:52:00,43.0,-99.9,30.05,SSE,162,6.0,12.0,-999,-99.99,,,-99.99,,2013-02-21 15:52:00,
2013-02-21 08:02:00,43.0,-99.9,30.05,South,170,2.0,7.0,-999,-99.99,,,-99.99,,2013-02-21 16:02:00,
2013-02-21 08:12:00,43.0,-99.9,30.06,SSE,167,4.0,11.0,-999,-99.99,,,-99.99,,2013-02-21 16:12:00,
2013-02-21 08:22:00,43.0,-99.9,30.06,SSW,202,6.0,13.0,-999,-99.99,,,-99.99,,2013-02-21 16:22:00,
2013-02-21 08:32:00,43.0,-99.9,30.06,SE,143,5.0,10.0,-999,-99.99,,,-99.99,,2013-02-21 16:32:00,
2013-02-21 08:42:00,43.0,-99.9,30.06,South,181,8.0,15.0,-999,-99.99,,,-99.99,,2013-02-21 16:42:00,
2013-02-21 08:52:00,43.0,-99.9,30.06,South,191,5.0,10.0,-999,-99.99,,,-99.99,,2013-02-21 16:52:00,
2013-02-21 09:02:00,43.0,-99.9,30.06,SSW,212,13.0,19.0,-999,-99.99,,,-99.99,,2013-02-21 17:02:00,
2013-02-21 09:11:00,43.0,-99.9,30.06,SSW,197,5.0,13.0,-999,-99.99,,,-99.99,,2013-02-21 17:11:00,
2013-02-21 09:22:00,43.0,-99.9,30.06,South,188,9.0,22.0,-999,-99.99,,,-99.99,,2013-02-21 17:22:00,
2013-02-21 09:32:00,43.0,-99.9,30.07,South,186,12.0,17.0,-999,-99.99,,,-99.99,,2013-02-21 17:32:00,
2013-02-21 09:42:00,43.0,-99.9,30.06,SSW,192,5.0,15.0,-999,-99.99,,,-99.99,,2013-02-21 17:42:00,
2013-02-21 09:52:00,43.0,-99.9,30.06,South,175,8.0,14.0,-999,-99.99,,,-99.99,,2013-02-21 17:52:00,
2013-02-21 10:02:00,43.0,-99.9,30.06,SSE,160,5.0,13.0,-999,-99.99,,,-99.99,,2013-02-21 18:02:00,
2013-02-21 10:12:00,43.0,-99.9,30.06,South,186,11.0,19.0,-999,-99.99,,,-99.99,,2013-02-21 18:12:00,
2013-02-21 10:22:00,43.0,-99.9,30.06,South,171,7.0,14.0,-999,-99.99,,,-99.99,,2013-02-21 18:22:00,
2013-02-21 10:32:00,43.0,-99.9,30.06,SSW,196,15.0,23.0,-999,-99.99,,,-99.99,,2013-02-21 18:32:00,
2013-02-21 10:42:00,43.0,-99.9,30.06,SSW,208,16.0,24.0,-999,-99.99,,,-99.99,,2013-02-21 18:42:00,
2013-02-21 10:52:00,43.0,-99.9,30.06,SSW,203,17.0,28.0,-999,-99.99,,,-99.99,,2013-02-21 18:52:00,
2013-02-21 11:02:00,43.0,-99.9,30.06,SSW,206,17.0,26.0,-999,-99.99,,,-99.99,,2013-02-21 19:02:00,
2013-02-21 11:12:00,43.0,-99.9,30.06,South,188,12.0,25.0,-999,-99.99,,,-99.99,,2013-02-21 19:12:00,
2013-02-21 11:22:00,43.0,-99.9,30.06,South,175,8.0,26.0,-999,-99.99,,,-99.99,,2013-02-21 19:22:00,
2013-02-21 11:32:00,43.0,-99.9,30.07,SSW,198,11.0,26.0,-999,-99.99,,,-99.99,,2013-02-21 19:32:00,
2013-02-21 11:42:00,43.0,-99.9,30.07,SSW,196,11.0,24.0,-999,-99.99,,,-99.99,,2013-02-21 19:42:00,
2013-02-21 11:52:00,43.0,-99.9,30.07,SSW,196,11.0,24.0,-999,-99.99,,,-99.99,,2013-02-21 19:52:00,
2013-02-21 12:01:00,43.0,-99.9,30.07,South,186,7.0,18.0,-999,-99.99,,,-99.99,,2013-02-21 20:01:00,
2013-02-21 12:11:00,43.0,-99.9,30.07,SSW,206,23.0,27.0,-999,-99.99,,,-99.99,,2013-02-21 20:11:00,
2013-02-21 12:22:00,43.0,-99.9,30.07,SSW,210,20.0,24.0,-999,-99.99,,,-99.99,,2013-02-21 20:22:00,
2013-02-21 12:32:00,43.0,-99.9,30.07,South,187,10.0,17.0,-999,-99.99,,,-99.99,,2013-02-21 20:32:00,
2013-02-21 12:42:00,43.0,-99.9,30.07,South,191,3.0,13.0,-999,-99.99,,,-99.99,,2013-02-21 20:42:00,
2013-02-21 12:53:00,43.0,-99.9,30.07,South,181,10.0,14.0,-999,-99.99,,,-99.99,,2013-02-21 20:53:00,
2013-02-21 13:02:00,43.0,-99.9,30.06,SSE,166,9.0,13.0,-999,-99.99,,,-99.99,,2013-02-21 21:02:00,
2013-02-21 13:12:00,43.0,-99.9,30.06,South,179,8.0,16.0,-999,-99.99,,,-99.99,,2013-02-21 21:12:00,
2013-02-21 13:22:00,43.0,-99.9,30.06,SSW,207,9.0,13.0,-999,-99.99,,,-99.99,,2013-02-21 21:22:00,
2013-02-21 13:32:00,43.0,-99.9,30.06,SSW,203,8.0,14.0,-999,-99.99,,,-99.99,,2013-02-21 21:32:00,
2013-02-21 13:42:00,43.0,-99.9,30.05,SSE,168,5.0,13.0,-999,-99.99,,,-99.99,,2013-02-21 21:42:00,
2013-02-21 13:52:00,42.0,-99.9,30.05,SSE,166,11.0,17.0,-999,-99.99,,,-99.99,,2013-02-21 21:52:00,
2013-02-21 14:01:00,42.0,-99.9,30.04,South,174,7.0,13.0,-999,-99.99,,,-99.99,,2013-02-21 22:01:00,
2013-02-21 14:11:00,43.0,-99.9,30.04,SSW,194,9.0,16.0,-999,-99.99,,,-99.99,,2013-02-21 22:11:00,
2013-02-21 14:22:00,42.0,-99.9,30.03,South,177,8.0,15.0,-999,-99.99,,,-99.99,,2013-02-21 22:22:00,
2013-02-21 14:32:00,43.0,-99.9,30.04,South,183,6.0,10.0,-999,-99.99,,,-99.99,,2013-02-21 22:32:00,
2013-02-21 14:42:00,43.0,-99.9,30.04,South,184,7.0,12.0,-999,-99.99,,,-99.99,,2013-02-21 22:42:00,
2013-02-21 14:52:00,43.0,-99.9,30.04,South,189,10.0,12.0,-999,-99.99,,,-99.99,,2013-02-21 22:52:00,
2013-02-21 15:01:00,43.0,-99.9,30.03,South,180,9.0,15.0,-999,-99.99,,,-99.99,,2013-02-21 23:01:00,
2013-02-21 15:11:00,43.0,-99.9,30.03,SSE,168,5.0,10.0,-999,-99.99,,,-99.99,,2013-02-21 23:11:00,
2013-02-21 15:21:00,44.0,-99.9,30.03,SSW,192,4.0,17.0,-999,-99.99,,,-99.99,,2013-02-21 23:21:00,
2013-02-21 15:32:00,44.0,-99.9,30.03,South,187,9.0,14.0,-999,-99.99,,,-99.99,,2013-02-21 23:32:00,
2013-02-21 15:42:00,44.0,-99.9,30.04,South,183,10.0,18.0,-999,-99.99,,,-99.99,,2013-02-21 23:42:00,
2013-02-21 15:53:00,44.0,-99.9,30.04,South,188,7.0,16.0,-999,-99.99,,,-99.99,,2013-02-21 23:53:00,
2013-02-21 16:02:00,44.0,-99.9,30.04,South,184,6.0,14.0,-999,-99.99,,,-99.99,,2013-02-22 00:02:00,
2013-02-21 16:11:00,44.0,-99.9,30.03,South,178,6.0,11.0,-999,-99.99,,,-99.99,,2013-02-22 00:11:00,
2013-02-21 16:22:00,44.0,-99.9,30.03,South,185,5.0,13.0,-999,-99.99,,,-99.99,,2013-02-22 00:22:00,
2013-02-21 16:32:00,44.0,-99.9,30.03,South,170,6.0,11.0,-999,-99.99,,,-99.99,,2013-02-22 00:32:00,
2013-02-21 16:42:00,45.0,-99.9,30.04,South,180,9.0,15.0,-999,-99.99,,,-99.99,,2013-02-22 00:42:00,
2013-02-21 16:52:00,45.0,-99.9,30.04,South,191,11.0,19.0,-999,-99.99,,,-99.99,,2013-02-22 00:52:00,
2013-02-21 17:01:00,45.0,-99.9,30.04,SSW,194,11.0,17.0,-999,-99.99,,,-99.99,,2013-02-22 01:01:00,
2013-02-21 17:11:00,45.0,-99.9,30.03,SSE,165,9.0,17.0,-999,-99.99,,,-99.99,,2013-02-22 01:11:00,
2013-02-21 17:22:00,45.0,-99.9,30.03,South,176,8.0,15.0,-999,-99.99,,,-99.99,,2013-02-22 01:22:00,
2013-02-21 17:32:00,45.0,-99.9,30.04,SSE,164,8.0,14.0,-999,-99.99,,,-99.99,,2013-02-22 01:32:00,
2013-02-21 17:42:00,45.0,-99.9,30.04,SSE,162,4.0,17.0,-999,-99.99,,,-99.99,,2013-02-22 01:42:00,
2013-02-21 17:52:00,45.0,-99.9,30.05,SSW,205,5.0,11.0,-999,-99.99,,,-99.99,,2013-02-22 01:52:00,
2013-02-21 18:02:00,45.0,-99.9,30.05,SSE,166,4.0,13.0,-999,-99.99,,,-99.99,,2013-02-22 02:02:00,
2013-02-21 18:11:00,45.0,-99.9,30.06,SSW,204,8.0,14.0,-999,-99.99,,,-99.99,,2013-02-22 02:11:00,
2013-02-21 18:22:00,45.0,-99.9,30.06,SSW,195,8.0,13.0,-999,-99.99,,,-99.99,,2013-02-22 02:22:00,
2013-02-21 18:32:00,45.0,-99.9,30.06,SW,214,10.0,13.0,-999,-99.99,,,-99.99,,2013-02-22 02:32:00,
2013-02-21 18:42:00,45.0,-99.9,30.06,SSW,213,10.0,14.0,-999,-99.99,,,-99.99,,2013-02-22 02:42:00,
2013-02-21 18:52:00,44.0,-99.9,30.06,SSW,205,9.0,13.0,-999,-99.99,,,-99.99,,2013-02-22 02:52:00,
2013-02-21 19:02:00,45.0,-99.9,30.06,South,183,6.0,10.0,-999,-99.99,,,-99.99,,2013-02-22 03:02:00,
2013-02-21 19:11:00,45.0,-99.9,30.05,SSE,155,5.0,8.0,-999,-99.99,,,-99.99,,2013-02-22 03:11:00,
2013-02-21 19:22:00,44.0,-99.9,30.05,SSE,166,6.0,9.0,-999,-99.99,,,-99.99,,2013-02-22 03:22:00,
2013-02-21 19:32:00,45.0,-99.9,30.05,SSE,167,4.0,8.0,-999,-99.99,,,-99.99,,2013-02-22 03:32:00,
2013-02-21 19:42:00,45.0,-99.9,30.05,SSW,202,6.0,10.0,-999,-99.99,,,-99.99,,2013-02-22 03:42:00,
2013-02-21 19:52:00,45.0,-99.9,30.05,South,180,5.0,10.0,-999,-99.99,,,-99.99,,2013-02-22 03:52:00,
2013-02-21 20:02:00,45.0,-99.9,30.05,SSW,195,6.0,12.0,-999,-99.99,,,-99.99,,2013-02-22 04:02:00,
2013-02-21 20:11:00,45.0,-99.9,30.05,South,172,4.0,13.0,-999,-99.99,,,-99.99,,2013-02-22 04:11:00,
2013-02-21 20:22:00,45.0,-99.9,30.05,South,174,5.0,10.0,-999,-99.99,,,-99.99,,2013-02-22 04:22:00,
2013-02-21 20:32:00,45.0,-99.9,30.05,SSW,213,12.0,14.0,-999,-99.99,,,-99.99,,2013-02-22 04:32:00,
2013-02-21 20:42:00,45.0,-99.9,30.05,SSW,198,8.0,13.0,-999,-99.99,,,-99.99,,2013-02-22 04:42:00,
2013-02-21 20:52:00,45.0,-99.9,30.06,SSW,193,8.0,13.0,-999,-99.99,,,-99.99,,2013-02-22 04:52:00,
2013-02-21 21:02:00,45.0,-99.9,30.06,SSW,201,8.0,14.0,-999,-99.99,,,-99.99,,2013-02-22 05:02:00,
2013-02-21 21:12:00,45.0,-99.9,30.07,SSW,211,11.0,15.0,-999,-99.99,,,-99.99,,2013-02-22 05:12:00,
2013-02-21 21:22:00,45.0,-99.9,30.07,SW,217,3.0,14.0,-999,-99.99,,,-99.99,,2013-02-22 05:22:00,
2013-02-21 21:32:00,45.0,-99.9,30.07,SSW,195,7.0,13.0,-999,-99.99,,,-99.99,,2013-02-22 05:32:00,
2013-02-21 21:42:00,45.0,-99.9,30.07,SW,214,8.0,14.0,-999,-99.99,,,-99.99,,2013-02-22 05:42:00,
2013-02-21 21:52:00,45.0,-99.9,30.08,SSW,213,8.0,13.0,-999,-99.99,,,-99.99,,2013-02-22 05:52:00,
2013-02-21 22:02:00,45.0,-99.9,30.08,SSW,210,11.0,15.0,-999,-99.99,,,-99.99,,2013-02-22 06:02:00,
2013-02-21 22:12:00,45.0,-99.9,30.08,SW,217,11.0,13.0,-999,-99.99,,,-99.99,,2013-02-22 06:12:00,
2013-02-21 22:22:00,45.0,-99.9,30.08,SW,229,10.0,12.0,-999,-99.99,,,-99.99,,2013-02-22 06:22:00,
2013-02-21 22:32:00,45.0,-99.9,30.08,ESE,123,1.0,5.0,-999,-99.99,,,-99.99,,2013-02-22 06:32:00,
2013-02-21 22:42:00,45.0,-99.9,30.07,SSE,159,5.0,8.0,-999,-99.99,,,-99.99,,2013-02-22 06:42:00,
2013-02-21 22:52:00,45.0,-99.9,30.07,SSE,155,7.0,13.0,-999,-99.99,,,-99.99,,2013-02-22 06:52:00,
2013-02-21 23:01:00,45.0,-99.9,30.07,South,185,4.0,6.0,-999,-99.99,,,-99.99,,2013-02-22 07:01:00,
2013-02-21 23:11:00,45.0,-99.9,30.06,South,180,5.0,11.0,-999,-99.99,,,-99.99,,2013-02-22 07:11:00,
2013-02-21 23:22:00,45.0,-99.9,30.06,South,181,5.0,10.0,-999,-99.99,,,-99.99,,2013-02-22 07:22:00,
2013-02-21 23:32:00,45.0,-99.9,30.07,SSW,199,4.0,8.0,-999,-99.99,,,-99.99,,2013-02-22 07:32:00,
2013-02-21 23:42:00,44.0,-99.9,30.06,South,187,8.0,12.0,-999,-99.99,,,-99.99,,2013-02-22 07:42:00,
2013-02-21 23:52:00,44.0,-99.9,30.06,SSE,166,8.0,13.0,-999,-99.99,,,-99.99,,2013-02-22 07:52:00,